sensor_id;sensor_type;location;lat;lon;timestamp;P1;durP1;ratioP1;P2;durP2;ratioP2
74612;SDS011;63119;51.788;8.824;2024-03-02T00:02:00;10.07;;;4.47;;
74612;SDS011;63119;51.788;8.824;2024-03-02T00:04:25;9.17;;;5.27;;
74612;SDS011;63119;51.788;8.824;2024-03-02T00:06:52;9.70;;;4.95;;
74612;SDS011;63119;51.788;8.824;2024-03-02T00:09:19;8.73;;;5.40;;
74612;SDS011;63119;51.788;8.824;2024-03-02T00:11:45;10.63;;;5.72;;
74612;SDS011;63119;51.788;8.824;2024-03-02T00:14:10;10.03;;;5.50;;
74612;SDS011;63119;51.788;8.824;2024-03-02T00:16:35;8.60;;;5.17;;
74612;SDS011;63119;51.788;8.824;2024-03-02T00:19:02;8.48;;;5.30;;
74612;SDS011;63119;51.788;8.824;2024-03-02T00:21:29;9.93;;;5.85;;
74612;SDS011;63119;51.788;8.824;2024-03-02T00:23:55;9.43;;;5.47;;
74612;SDS011;63119;51.788;8.824;2024-03-02T00:26:21;10.88;;;5.53;;
74612;SDS011;63119;51.788;8.824;2024-03-02T00:28:46;10.67;;;5.57;;
74612;SDS011;63119;51.788;8.824;2024-03-02T00:31:12;9.68;;;5.28;;
74612;SDS011;63119;51.788;8.824;2024-03-02T00:33:42;11.35;;;6.38;;
74612;SDS011;63119;51.788;8.824;2024-03-02T00:36:12;12.45;;;6.70;;
74612;SDS011;63119;51.788;8.824;2024-03-02T00:38:45;13.20;;;6.32;;
74612;SDS011;63119;51.788;8.824;2024-03-02T00:41:15;8.85;;;6.05;;
74612;SDS011;63119;51.788;8.824;2024-03-02T00:43:45;10.60;;;6.18;;
74612;SDS011;63119;51.788;8.824;2024-03-02T00:46:15;11.07;;;6.07;;
74612;SDS011;63119;51.788;8.824;2024-03-02T00:48:52;9.02;;;6.07;;
74612;SDS011;63119;51.788;8.824;2024-03-02T00:51:41;10.23;;;6.20;;
74612;SDS011;63119;51.788;8.824;2024-03-02T00:54:07;7.97;;;5.72;;
74612;SDS011;63119;51.788;8.824;2024-03-02T00:56:34;9.65;;;6.00;;
74612;SDS011;63119;51.788;8.824;2024-03-02T00:58:59;11.27;;;6.60;;
74612;SDS011;63119;51.788;8.824;2024-03-02T01:01:25;9.20;;;5.50;;
74612;SDS011;63119;51.788;8.824;2024-03-02T01:03:50;9.63;;;5.63;;
74612;SDS011;63119;51.788;8.824;2024-03-02T01:06:15;10.33;;;6.40;;
74612;SDS011;63119;51.788;8.824;2024-03-02T01:08:41;8.98;;;5.60;;
74612;SDS011;63119;51.788;8.824;2024-03-02T01:11:06;9.75;;;6.18;;
74612;SDS011;63119;51.788;8.824;2024-03-02T01:13:32;10.10;;;5.70;;
74612;SDS011;63119;51.788;8.824;2024-03-02T01:15:57;8.90;;;5.38;;
74612;SDS011;63119;51.788;8.824;2024-03-02T01:18:23;10.82;;;5.85;;
74612;SDS011;63119;51.788;8.824;2024-03-02T01:20:49;10.87;;;5.67;;
74612;SDS011;63119;51.788;8.824;2024-03-02T01:23:16;8.95;;;6.18;;
74612;SDS011;63119;51.788;8.824;2024-03-02T01:25:42;10.60;;;6.25;;
74612;SDS011;63119;51.788;8.824;2024-03-02T01:28:07;12.83;;;6.97;;
74612;SDS011;63119;51.788;8.824;2024-03-02T01:30:33;10.40;;;6.38;;
74612;SDS011;63119;51.788;8.824;2024-03-02T01:32:58;10.43;;;6.90;;
74612;SDS011;63119;51.788;8.824;2024-03-02T01:35:25;11.05;;;6.43;;
74612;SDS011;63119;51.788;8.824;2024-03-02T01:37:51;13.63;;;6.90;;
74612;SDS011;63119;51.788;8.824;2024-03-02T01:40:16;10.03;;;5.90;;
74612;SDS011;63119;51.788;8.824;2024-03-02T01:42:42;11.83;;;6.47;;
74612;SDS011;63119;51.788;8.824;2024-03-02T01:45:08;12.07;;;6.20;;
74612;SDS011;63119;51.788;8.824;2024-03-02T01:47:34;12.93;;;6.50;;
74612;SDS011;63119;51.788;8.824;2024-03-02T01:49:59;12.25;;;6.55;;
74612;SDS011;63119;51.788;8.824;2024-03-02T01:52:25;8.27;;;5.47;;
74612;SDS011;63119;51.788;8.824;2024-03-02T01:54:50;10.35;;;5.90;;
74612;SDS011;63119;51.788;8.824;2024-03-02T01:57:15;13.60;;;6.97;;
74612;SDS011;63119;51.788;8.824;2024-03-02T01:59:41;11.77;;;6.43;;
74612;SDS011;63119;51.788;8.824;2024-03-02T02:02:07;10.17;;;6.27;;
74612;SDS011;63119;51.788;8.824;2024-03-02T02:04:32;11.38;;;6.75;;
74612;SDS011;63119;51.788;8.824;2024-03-02T02:06:57;11.13;;;6.38;;
74612;SDS011;63119;51.788;8.824;2024-03-02T02:09:23;11.15;;;6.32;;
74612;SDS011;63119;51.788;8.824;2024-03-02T02:11:50;11.48;;;6.70;;
74612;SDS011;63119;51.788;8.824;2024-03-02T02:14:15;13.23;;;7.05;;
74612;SDS011;63119;51.788;8.824;2024-03-02T02:16:41;10.10;;;6.23;;
74612;SDS011;63119;51.788;8.824;2024-03-02T02:19:06;9.97;;;6.13;;
74612;SDS011;63119;51.788;8.824;2024-03-02T02:21:31;9.70;;;6.30;;
74612;SDS011;63119;51.788;8.824;2024-03-02T02:23:56;10.57;;;6.47;;
74612;SDS011;63119;51.788;8.824;2024-03-02T02:26:21;11.30;;;6.57;;
74612;SDS011;63119;51.788;8.824;2024-03-02T02:28:47;12.10;;;7.20;;
74612;SDS011;63119;51.788;8.824;2024-03-02T02:31:12;11.47;;;7.00;;
74612;SDS011;63119;51.788;8.824;2024-03-02T02:33:39;12.15;;;6.72;;
74612;SDS011;63119;51.788;8.824;2024-03-02T02:36:05;10.48;;;6.32;;
74612;SDS011;63119;51.788;8.824;2024-03-02T02:38:30;11.90;;;7.47;;
74612;SDS011;63119;51.788;8.824;2024-03-02T02:41:01;11.02;;;6.65;;
74612;SDS011;63119;51.788;8.824;2024-03-02T02:43:26;13.37;;;7.77;;
74612;SDS011;63119;51.788;8.824;2024-03-02T02:45:51;11.50;;;6.77;;
74612;SDS011;63119;51.788;8.824;2024-03-02T02:48:16;13.07;;;6.57;;
74612;SDS011;63119;51.788;8.824;2024-03-02T02:50:42;11.37;;;7.27;;
74612;SDS011;63119;51.788;8.824;2024-03-02T02:53:07;11.83;;;7.87;;
74612;SDS011;63119;51.788;8.824;2024-03-02T02:55:34;12.10;;;6.97;;
74612;SDS011;63119;51.788;8.824;2024-03-02T02:57:59;13.77;;;6.93;;
74612;SDS011;63119;51.788;8.824;2024-03-02T03:00:25;13.53;;;6.63;;
74612;SDS011;63119;51.788;8.824;2024-03-02T03:02:50;12.40;;;7.20;;
74612;SDS011;63119;51.788;8.824;2024-03-02T03:05:15;14.23;;;8.02;;
74612;SDS011;63119;51.788;8.824;2024-03-02T03:07:41;12.60;;;7.83;;
74612;SDS011;63119;51.788;8.824;2024-03-02T03:10:07;13.23;;;8.10;;
74612;SDS011;63119;51.788;8.824;2024-03-02T03:12:33;17.42;;;8.57;;
74612;SDS011;63119;51.788;8.824;2024-03-02T03:14:59;14.93;;;8.52;;
74612;SDS011;63119;51.788;8.824;2024-03-02T03:17:25;15.35;;;8.35;;
74612;SDS011;63119;51.788;8.824;2024-03-02T03:19:50;13.83;;;9.03;;
74612;SDS011;63119;51.788;8.824;2024-03-02T03:22:15;17.00;;;9.40;;
74612;SDS011;63119;51.788;8.824;2024-03-02T03:24:41;15.98;;;8.25;;
74612;SDS011;63119;51.788;8.824;2024-03-02T03:27:06;16.07;;;8.60;;
74612;SDS011;63119;51.788;8.824;2024-03-02T03:29:31;16.90;;;8.75;;
74612;SDS011;63119;51.788;8.824;2024-03-02T03:31:57;19.90;;;9.20;;
74612;SDS011;63119;51.788;8.824;2024-03-02T03:34:22;14.83;;;8.47;;
74612;SDS011;63119;51.788;8.824;2024-03-02T03:36:47;17.27;;;9.53;;
74612;SDS011;63119;51.788;8.824;2024-03-02T03:39:12;17.07;;;8.93;;
74612;SDS011;63119;51.788;8.824;2024-03-02T03:41:38;15.80;;;8.20;;
74612;SDS011;63119;51.788;8.824;2024-03-02T03:44:03;18.00;;;9.20;;
74612;SDS011;63119;51.788;8.824;2024-03-02T03:46:28;15.60;;;8.85;;
74612;SDS011;63119;51.788;8.824;2024-03-02T03:48:54;18.27;;;9.55;;
74612;SDS011;63119;51.788;8.824;2024-03-02T03:51:20;17.65;;;9.13;;
74612;SDS011;63119;51.788;8.824;2024-03-02T03:53:46;18.07;;;9.77;;
74612;SDS011;63119;51.788;8.824;2024-03-02T03:56:11;19.17;;;9.18;;
74612;SDS011;63119;51.788;8.824;2024-03-02T03:58:36;14.47;;;9.03;;
74612;SDS011;63119;51.788;8.824;2024-03-02T04:01:02;20.37;;;10.33;;
74612;SDS011;63119;51.788;8.824;2024-03-02T04:03:27;16.83;;;9.47;;
74612;SDS011;63119;51.788;8.824;2024-03-02T04:05:52;15.37;;;8.13;;
74612;SDS011;63119;51.788;8.824;2024-03-02T04:08:17;19.07;;;8.67;;
74612;SDS011;63119;51.788;8.824;2024-03-02T04:10:43;18.17;;;10.00;;
74612;SDS011;63119;51.788;8.824;2024-03-02T04:13:08;17.40;;;9.27;;
74612;SDS011;63119;51.788;8.824;2024-03-02T04:15:33;20.50;;;9.80;;
74612;SDS011;63119;51.788;8.824;2024-03-02T04:17:58;17.43;;;8.93;;
74612;SDS011;63119;51.788;8.824;2024-03-02T04:20:24;16.17;;;8.13;;
74612;SDS011;63119;51.788;8.824;2024-03-02T04:22:50;19.67;;;9.95;;
74612;SDS011;63119;51.788;8.824;2024-03-02T04:25:15;19.70;;;9.67;;
74612;SDS011;63119;51.788;8.824;2024-03-02T04:27:41;19.43;;;9.33;;
74612;SDS011;63119;51.788;8.824;2024-03-02T04:30:06;17.92;;;9.43;;
74612;SDS011;63119;51.788;8.824;2024-03-02T04:32:32;15.32;;;8.23;;
74612;SDS011;63119;51.788;8.824;2024-03-02T04:34:57;16.87;;;8.57;;
74612;SDS011;63119;51.788;8.824;2024-03-02T04:37:22;20.20;;;9.30;;
74612;SDS011;63119;51.788;8.824;2024-03-02T04:39:47;16.13;;;8.47;;
74612;SDS011;63119;51.788;8.824;2024-03-02T04:42:13;14.20;;;8.80;;
74612;SDS011;63119;51.788;8.824;2024-03-02T04:44:38;19.33;;;9.20;;
74612;SDS011;63119;51.788;8.824;2024-03-02T04:47:04;19.57;;;9.97;;
74612;SDS011;63119;51.788;8.824;2024-03-02T04:49:30;17.70;;;8.65;;
74612;SDS011;63119;51.788;8.824;2024-03-02T04:51:55;16.50;;;8.52;;
74612;SDS011;63119;51.788;8.824;2024-03-02T04:54:21;16.73;;;8.98;;
74612;SDS011;63119;51.788;8.824;2024-03-02T04:56:47;16.52;;;8.63;;
74612;SDS011;63119;51.788;8.824;2024-03-02T04:59:15;16.67;;;8.55;;
74612;SDS011;63119;51.788;8.824;2024-03-02T05:01:42;20.52;;;9.82;;
74612;SDS011;63119;51.788;8.824;2024-03-02T05:04:07;16.20;;;9.02;;
74612;SDS011;63119;51.788;8.824;2024-03-02T05:06:33;18.73;;;8.95;;
74612;SDS011;63119;51.788;8.824;2024-03-02T05:08:58;18.57;;;9.43;;
74612;SDS011;63119;51.788;8.824;2024-03-02T05:11:23;17.93;;;10.10;;
74612;SDS011;63119;51.788;8.824;2024-03-02T05:14:06;19.92;;;9.30;;
74612;SDS011;63119;51.788;8.824;2024-03-02T05:16:35;17.75;;;8.32;;
74612;SDS011;63119;51.788;8.824;2024-03-02T05:19:00;18.27;;;9.68;;
74612;SDS011;63119;51.788;8.824;2024-03-02T05:21:26;18.90;;;10.02;;
74612;SDS011;63119;51.788;8.824;2024-03-02T05:23:51;17.88;;;10.38;;
74612;SDS011;63119;51.788;8.824;2024-03-02T05:26:16;17.53;;;8.83;;
74612;SDS011;63119;51.788;8.824;2024-03-02T05:28:42;15.70;;;8.70;;
74612;SDS011;63119;51.788;8.824;2024-03-02T05:31:10;20.08;;;10.40;;
74612;SDS011;63119;51.788;8.824;2024-03-02T05:33:37;18.20;;;10.50;;
74612;SDS011;63119;51.788;8.824;2024-03-02T05:36:03;18.88;;;9.50;;
74612;SDS011;63119;51.788;8.824;2024-03-02T05:38:29;19.00;;;9.73;;
74612;SDS011;63119;51.788;8.824;2024-03-02T05:40:54;19.90;;;10.43;;
74612;SDS011;63119;51.788;8.824;2024-03-02T05:43:19;17.80;;;10.17;;
74612;SDS011;63119;51.788;8.824;2024-03-02T05:45:45;21.52;;;10.20;;
74612;SDS011;63119;51.788;8.824;2024-03-02T05:48:10;21.87;;;9.97;;
74612;SDS011;63119;51.788;8.824;2024-03-02T05:50:35;19.97;;;9.80;;
74612;SDS011;63119;51.788;8.824;2024-03-02T05:53:01;16.03;;;8.87;;
74612;SDS011;63119;51.788;8.824;2024-03-02T05:55:26;19.07;;;10.70;;
74612;SDS011;63119;51.788;8.824;2024-03-02T05:57:51;18.37;;;9.30;;
74612;SDS011;63119;51.788;8.824;2024-03-02T06:00:31;17.58;;;9.23;;
74612;SDS011;63119;51.788;8.824;2024-03-02T06:02:57;18.60;;;9.98;;
74612;SDS011;63119;51.788;8.824;2024-03-02T06:05:23;18.58;;;9.23;;
74612;SDS011;63119;51.788;8.824;2024-03-02T06:07:48;19.92;;;10.18;;
74612;SDS011;63119;51.788;8.824;2024-03-02T06:10:13;19.87;;;9.23;;
74612;SDS011;63119;51.788;8.824;2024-03-02T06:12:39;19.00;;;9.93;;
74612;SDS011;63119;51.788;8.824;2024-03-02T06:15:04;17.77;;;9.63;;
74612;SDS011;63119;51.788;8.824;2024-03-02T06:17:30;19.63;;;9.70;;
74612;SDS011;63119;51.788;8.824;2024-03-02T06:19:55;19.50;;;10.40;;
74612;SDS011;63119;51.788;8.824;2024-03-02T06:22:21;21.38;;;10.20;;
74612;SDS011;63119;51.788;8.824;2024-03-02T06:24:47;18.88;;;10.02;;
74612;SDS011;63119;51.788;8.824;2024-03-02T06:27:13;19.27;;;9.70;;
74612;SDS011;63119;51.788;8.824;2024-03-02T06:29:38;18.90;;;8.97;;
74612;SDS011;63119;51.788;8.824;2024-03-02T06:32:03;16.53;;;8.70;;
74612;SDS011;63119;51.788;8.824;2024-03-02T06:34:29;19.33;;;10.27;;
74612;SDS011;63119;51.788;8.824;2024-03-02T06:36:54;19.10;;;9.60;;
74612;SDS011;63119;51.788;8.824;2024-03-02T06:39:19;17.67;;;9.60;;
74612;SDS011;63119;51.788;8.824;2024-03-02T06:41:44;19.67;;;10.53;;
74612;SDS011;63119;51.788;8.824;2024-03-02T06:44:12;22.42;;;11.18;;
74612;SDS011;63119;51.788;8.824;2024-03-02T06:46:37;24.27;;;10.07;;
74612;SDS011;63119;51.788;8.824;2024-03-02T06:49:02;21.33;;;10.33;;
74612;SDS011;63119;51.788;8.824;2024-03-02T06:51:29;20.23;;;9.57;;
74612;SDS011;63119;51.788;8.824;2024-03-02T06:53:54;20.93;;;9.13;;
74612;SDS011;63119;51.788;8.824;2024-03-02T06:56:20;23.50;;;10.90;;
74612;SDS011;63119;51.788;8.824;2024-03-02T06:58:45;22.73;;;11.13;;
74612;SDS011;63119;51.788;8.824;2024-03-02T07:01:10;19.57;;;9.50;;
74612;SDS011;63119;51.788;8.824;2024-03-02T07:03:36;17.95;;;9.57;;
74612;SDS011;63119;51.788;8.824;2024-03-02T07:06:01;19.07;;;10.37;;
74612;SDS011;63119;51.788;8.824;2024-03-02T07:08:26;19.60;;;10.00;;
74612;SDS011;63119;51.788;8.824;2024-03-02T07:10:52;20.27;;;9.10;;
74612;SDS011;63119;51.788;8.824;2024-03-02T07:13:17;18.30;;;10.67;;
74612;SDS011;63119;51.788;8.824;2024-03-02T07:15:42;19.30;;;10.90;;
74612;SDS011;63119;51.788;8.824;2024-03-02T07:18:10;22.05;;;10.32;;
74612;SDS011;63119;51.788;8.824;2024-03-02T07:20:35;18.37;;;10.37;;
74612;SDS011;63119;51.788;8.824;2024-03-02T07:23:00;24.10;;;10.70;;
74612;SDS011;63119;51.788;8.824;2024-03-02T07:25:26;19.07;;;9.60;;
74612;SDS011;63119;51.788;8.824;2024-03-02T07:27:51;23.20;;;9.53;;
74612;SDS011;63119;51.788;8.824;2024-03-02T07:30:16;22.03;;;9.70;;
74612;SDS011;63119;51.788;8.824;2024-03-02T07:32:42;22.77;;;9.90;;
74612;SDS011;63119;51.788;8.824;2024-03-02T07:35:10;20.35;;;10.50;;
74612;SDS011;63119;51.788;8.824;2024-03-02T07:37:36;21.98;;;9.85;;
74612;SDS011;63119;51.788;8.824;2024-03-02T07:40:01;20.43;;;10.53;;
74612;SDS011;63119;51.788;8.824;2024-03-02T07:42:27;16.63;;;9.48;;
74612;SDS011;63119;51.788;8.824;2024-03-02T07:44:54;21.77;;;10.20;;
74612;SDS011;63119;51.788;8.824;2024-03-02T07:47:19;18.67;;;9.90;;
74612;SDS011;63119;51.788;8.824;2024-03-02T07:49:44;18.57;;;9.67;;
74612;SDS011;63119;51.788;8.824;2024-03-02T07:52:11;18.63;;;9.82;;
74612;SDS011;63119;51.788;8.824;2024-03-02T07:54:36;19.50;;;10.03;;
74612;SDS011;63119;51.788;8.824;2024-03-02T07:57:01;18.23;;;9.83;;
74612;SDS011;63119;51.788;8.824;2024-03-02T07:59:27;20.30;;;9.65;;
74612;SDS011;63119;51.788;8.824;2024-03-02T08:01:52;17.67;;;10.30;;
74612;SDS011;63119;51.788;8.824;2024-03-02T08:04:17;20.27;;;9.67;;
74612;SDS011;63119;51.788;8.824;2024-03-02T08:06:42;18.70;;;9.57;;
74612;SDS011;63119;51.788;8.824;2024-03-02T08:09:08;16.80;;;9.60;;
74612;SDS011;63119;51.788;8.824;2024-03-02T08:11:36;17.30;;;8.90;;
74612;SDS011;63119;51.788;8.824;2024-03-02T08:14:02;23.35;;;9.75;;
74612;SDS011;63119;51.788;8.824;2024-03-02T08:16:27;16.90;;;9.13;;
74612;SDS011;63119;51.788;8.824;2024-03-02T08:18:52;20.60;;;9.30;;
74612;SDS011;63119;51.788;8.824;2024-03-02T08:21:18;18.75;;;9.05;;
74612;SDS011;63119;51.788;8.824;2024-03-02T08:23:44;18.10;;;9.43;;
74612;SDS011;63119;51.788;8.824;2024-03-02T08:26:09;17.98;;;10.30;;
74612;SDS011;63119;51.788;8.824;2024-03-02T08:28:35;15.77;;;8.50;;
74612;SDS011;63119;51.788;8.824;2024-03-02T08:31:05;14.90;;;8.73;;
74612;SDS011;63119;51.788;8.824;2024-03-02T08:33:31;18.85;;;9.32;;
74612;SDS011;63119;51.788;8.824;2024-03-02T08:35:56;19.50;;;8.97;;
74612;SDS011;63119;51.788;8.824;2024-03-02T08:38:21;17.40;;;8.40;;
74612;SDS011;63119;51.788;8.824;2024-03-02T08:40:47;19.58;;;9.68;;
74612;SDS011;63119;51.788;8.824;2024-03-02T08:43:13;18.83;;;8.63;;
74612;SDS011;63119;51.788;8.824;2024-03-02T08:45:39;16.47;;;9.07;;
74612;SDS011;63119;51.788;8.824;2024-03-02T08:48:07;19.42;;;9.05;;
74612;SDS011;63119;51.788;8.824;2024-03-02T08:50:33;14.13;;;8.30;;
74612;SDS011;63119;51.788;8.824;2024-03-02T08:52:59;15.73;;;8.48;;
74612;SDS011;63119;51.788;8.824;2024-03-02T08:55:24;17.00;;;8.67;;
74612;SDS011;63119;51.788;8.824;2024-03-02T08:57:49;15.97;;;7.40;;
74612;SDS011;63119;51.788;8.824;2024-03-02T09:00:15;13.20;;;7.97;;
74612;SDS011;63119;51.788;8.824;2024-03-02T09:02:42;13.90;;;7.90;;
74612;SDS011;63119;51.788;8.824;2024-03-02T09:05:09;15.05;;;7.95;;
74612;SDS011;63119;51.788;8.824;2024-03-02T09:07:34;13.65;;;7.28;;
74612;SDS011;63119;51.788;8.824;2024-03-02T09:10:00;12.43;;;7.23;;
74612;SDS011;63119;51.788;8.824;2024-03-02T09:12:25;13.90;;;7.53;;
74612;SDS011;63119;51.788;8.824;2024-03-02T09:14:50;17.17;;;8.60;;
74612;SDS011;63119;51.788;8.824;2024-03-02T09:17:15;13.50;;;7.53;;
74612;SDS011;63119;51.788;8.824;2024-03-02T09:19:41;12.97;;;7.13;;
74612;SDS011;63119;51.788;8.824;2024-03-02T09:22:06;14.07;;;7.10;;
74612;SDS011;63119;51.788;8.824;2024-03-02T09:24:31;13.17;;;7.20;;
74612;SDS011;63119;51.788;8.824;2024-03-02T09:26:58;11.85;;;6.78;;
74612;SDS011;63119;51.788;8.824;2024-03-02T09:29:24;14.00;;;7.35;;
74612;SDS011;63119;51.788;8.824;2024-03-02T09:31:49;13.40;;;7.03;;
74612;SDS011;63119;51.788;8.824;2024-03-02T09:34:15;12.98;;;7.22;;
74612;SDS011;63119;51.788;8.824;2024-03-02T09:36:41;12.02;;;6.22;;
74612;SDS011;63119;51.788;8.824;2024-03-02T09:39:09;11.53;;;6.53;;
74612;SDS011;63119;51.788;8.824;2024-03-02T09:41:36;12.00;;;6.40;;
74612;SDS011;63119;51.788;8.824;2024-03-02T09:44:02;12.25;;;6.85;;
74612;SDS011;63119;51.788;8.824;2024-03-02T09:46:27;10.50;;;6.18;;
74612;SDS011;63119;51.788;8.824;2024-03-02T09:48:53;11.95;;;7.13;;
74612;SDS011;63119;51.788;8.824;2024-03-02T09:51:19;13.87;;;6.60;;
74612;SDS011;63119;51.788;8.824;2024-03-02T09:53:44;12.25;;;6.65;;
74612;SDS011;63119;51.788;8.824;2024-03-02T09:56:10;11.45;;;6.43;;
74612;SDS011;63119;51.788;8.824;2024-03-02T09:58:36;11.10;;;6.57;;
74612;SDS011;63119;51.788;8.824;2024-03-02T10:01:01;11.07;;;6.47;;
74612;SDS011;63119;51.788;8.824;2024-03-02T10:03:26;12.47;;;6.10;;
74612;SDS011;63119;51.788;8.824;2024-03-02T10:05:54;11.82;;;6.40;;
74612;SDS011;63119;51.788;8.824;2024-03-02T10:08:19;11.53;;;5.93;;
74612;SDS011;63119;51.788;8.824;2024-03-02T10:10:44;10.77;;;6.17;;
74612;SDS011;63119;51.788;8.824;2024-03-02T10:13:11;11.57;;;5.95;;
74612;SDS011;63119;51.788;8.824;2024-03-02T10:15:38;8.90;;;5.88;;
74612;SDS011;63119;51.788;8.824;2024-03-02T10:18:06;10.07;;;6.20;;
74612;SDS011;63119;51.788;8.824;2024-03-02T10:20:34;10.35;;;5.22;;
74612;SDS011;63119;51.788;8.824;2024-03-02T10:23:15;11.07;;;5.70;;
74612;SDS011;63119;51.788;8.824;2024-03-02T10:25:42;8.35;;;5.50;;
74612;SDS011;63119;51.788;8.824;2024-03-02T10:28:08;9.75;;;5.72;;
74612;SDS011;63119;51.788;8.824;2024-03-02T10:30:34;11.10;;;5.60;;
74612;SDS011;63119;51.788;8.824;2024-03-02T10:33:02;11.13;;;6.07;;
74612;SDS011;63119;51.788;8.824;2024-03-02T10:35:28;9.05;;;4.95;;
74612;SDS011;63119;51.788;8.824;2024-03-02T10:37:56;9.32;;;5.25;;
74612;SDS011;63119;51.788;8.824;2024-03-02T10:40:23;11.02;;;5.45;;
74612;SDS011;63119;51.788;8.824;2024-03-02T10:42:52;9.63;;;5.23;;
74612;SDS011;63119;51.788;8.824;2024-03-02T10:45:18;8.73;;;5.10;;
74612;SDS011;63119;51.788;8.824;2024-03-02T10:47:44;9.77;;;5.00;;
74612;SDS011;63119;51.788;8.824;2024-03-02T10:50:12;9.13;;;5.25;;
74612;SDS011;63119;51.788;8.824;2024-03-02T10:52:37;10.13;;;5.18;;
74612;SDS011;63119;51.788;8.824;2024-03-02T10:55:04;8.43;;;4.70;;
74612;SDS011;63119;51.788;8.824;2024-03-02T10:57:33;8.88;;;5.00;;
74612;SDS011;63119;51.788;8.824;2024-03-02T11:00:17;7.68;;;5.07;;
74612;SDS011;63119;51.788;8.824;2024-03-02T11:02:46;10.40;;;5.63;;
74612;SDS011;63119;51.788;8.824;2024-03-02T11:05:16;9.18;;;5.15;;
74612;SDS011;63119;51.788;8.824;2024-03-02T11:07:50;8.80;;;4.85;;
74612;SDS011;63119;51.788;8.824;2024-03-02T11:10:17;8.43;;;5.00;;
74612;SDS011;63119;51.788;8.824;2024-03-02T11:12:49;7.88;;;4.38;;
74612;SDS011;63119;51.788;8.824;2024-03-02T11:15:20;7.15;;;4.22;;
74612;SDS011;63119;51.788;8.824;2024-03-02T11:17:50;8.52;;;4.75;;
74612;SDS011;63119;51.788;8.824;2024-03-02T11:20:16;8.15;;;4.13;;
74612;SDS011;63119;51.788;8.824;2024-03-02T11:22:42;7.28;;;4.47;;
74612;SDS011;63119;51.788;8.824;2024-03-02T11:25:22;7.38;;;4.05;;
74612;SDS011;63119;51.788;8.824;2024-03-02T11:33:09;7.60;;;3.90;;
74612;SDS011;63119;51.788;8.824;2024-03-02T11:35:35;7.07;;;4.00;;
74612;SDS011;63119;51.788;8.824;2024-03-02T11:38:01;8.13;;;4.35;;
74612;SDS011;63119;51.788;8.824;2024-03-02T11:40:28;8.07;;;4.10;;
74612;SDS011;63119;51.788;8.824;2024-03-02T11:42:54;5.80;;;3.30;;
74612;SDS011;63119;51.788;8.824;2024-03-02T11:45:23;6.70;;;4.25;;
74612;SDS011;63119;51.788;8.824;2024-03-02T11:47:55;7.07;;;3.53;;
74612;SDS011;63119;51.788;8.824;2024-03-02T11:50:35;5.65;;;3.15;;
74612;SDS011;63119;51.788;8.824;2024-03-02T11:53:08;7.55;;;3.55;;
74612;SDS011;63119;51.788;8.824;2024-03-02T11:55:35;6.18;;;3.45;;
74612;SDS011;63119;51.788;8.824;2024-03-02T11:58:02;7.78;;;3.80;;
74612;SDS011;63119;51.788;8.824;2024-03-02T12:00:30;6.07;;;3.75;;
74612;SDS011;63119;51.788;8.824;2024-03-02T12:03:03;6.00;;;3.38;;
74612;SDS011;63119;51.788;8.824;2024-03-02T12:05:30;6.32;;;3.45;;
74612;SDS011;63119;51.788;8.824;2024-03-02T12:07:57;6.22;;;3.42;;
74612;SDS011;63119;51.788;8.824;2024-03-02T12:10:24;6.18;;;3.80;;
74612;SDS011;63119;51.788;8.824;2024-03-02T12:13:03;5.40;;;3.17;;
74612;SDS011;63119;51.788;8.824;2024-03-02T12:15:32;7.38;;;3.30;;
74612;SDS011;63119;51.788;8.824;2024-03-02T12:17:59;6.43;;;3.20;;
74612;SDS011;63119;51.788;8.824;2024-03-02T12:20:26;5.47;;;3.08;;
74612;SDS011;63119;51.788;8.824;2024-03-02T12:22:54;4.78;;;3.00;;
74612;SDS011;63119;51.788;8.824;2024-03-02T12:25:21;5.57;;;2.55;;
74612;SDS011;63119;51.788;8.824;2024-03-02T12:27:47;4.75;;;3.03;;
74612;SDS011;63119;51.788;8.824;2024-03-02T12:30:16;7.45;;;3.13;;
74612;SDS011;63119;51.788;8.824;2024-03-02T12:32:42;5.72;;;2.97;;
74612;SDS011;63119;51.788;8.824;2024-03-02T12:35:10;5.45;;;2.83;;
74612;SDS011;63119;51.788;8.824;2024-03-02T12:37:46;3.70;;;2.35;;
74612;SDS011;63119;51.788;8.824;2024-03-02T12:40:15;6.10;;;2.38;;
74612;SDS011;63119;51.788;8.824;2024-03-02T12:42:43;5.53;;;2.85;;
74612;SDS011;63119;51.788;8.824;2024-03-02T12:45:09;5.78;;;2.47;;
74612;SDS011;63119;51.788;8.824;2024-03-02T12:47:34;5.28;;;2.60;;
74612;SDS011;63119;51.788;8.824;2024-03-02T12:50:00;6.28;;;2.50;;
74612;SDS011;63119;51.788;8.824;2024-03-02T12:52:26;3.70;;;2.33;;
74612;SDS011;63119;51.788;8.824;2024-03-02T12:54:51;5.40;;;2.90;;
74612;SDS011;63119;51.788;8.824;2024-03-02T12:57:18;4.25;;;2.58;;
74612;SDS011;63119;51.788;8.824;2024-03-02T12:59:46;6.97;;;2.80;;
74612;SDS011;63119;51.788;8.824;2024-03-02T13:02:18;3.55;;;2.47;;
74612;SDS011;63119;51.788;8.824;2024-03-02T13:04:44;3.72;;;2.08;;
74612;SDS011;63119;51.788;8.824;2024-03-02T13:07:18;6.20;;;2.25;;
74612;SDS011;63119;51.788;8.824;2024-03-02T13:09:45;3.05;;;1.90;;
74612;SDS011;63119;51.788;8.824;2024-03-02T13:12:11;5.00;;;2.13;;
74612;SDS011;63119;51.788;8.824;2024-03-02T13:14:36;4.45;;;2.17;;
74612;SDS011;63119;51.788;8.824;2024-03-02T13:17:01;4.20;;;1.73;;
74612;SDS011;63119;51.788;8.824;2024-03-02T13:19:30;4.18;;;1.90;;
74612;SDS011;63119;51.788;8.824;2024-03-02T13:21:55;4.15;;;2.00;;
74612;SDS011;63119;51.788;8.824;2024-03-02T13:24:22;2.88;;;1.70;;
74612;SDS011;63119;51.788;8.824;2024-03-02T13:26:50;3.28;;;1.77;;
74612;SDS011;63119;51.788;8.824;2024-03-02T13:29:20;4.80;;;1.88;;
74612;SDS011;63119;51.788;8.824;2024-03-02T13:31:45;4.13;;;2.03;;
74612;SDS011;63119;51.788;8.824;2024-03-02T13:34:11;2.43;;;1.40;;
74612;SDS011;63119;51.788;8.824;2024-03-02T13:36:36;2.20;;;1.40;;
74612;SDS011;63119;51.788;8.824;2024-03-02T13:39:01;2.97;;;1.43;;
74612;SDS011;63119;51.788;8.824;2024-03-02T13:41:27;2.38;;;1.30;;
74612;SDS011;63119;51.788;8.824;2024-03-02T13:43:53;3.20;;;1.83;;
74612;SDS011;63119;51.788;8.824;2024-03-02T13:46:18;2.63;;;1.33;;
74612;SDS011;63119;51.788;8.824;2024-03-02T13:48:43;2.63;;;1.80;;
74612;SDS011;63119;51.788;8.824;2024-03-02T13:51:09;3.83;;;2.03;;
74612;SDS011;63119;51.788;8.824;2024-03-02T13:53:34;3.70;;;2.93;;
74612;SDS011;63119;51.788;8.824;2024-03-02T13:56:00;4.75;;;3.00;;
74612;SDS011;63119;51.788;8.824;2024-03-02T13:58:25;6.67;;;3.43;;
74612;SDS011;63119;51.788;8.824;2024-03-02T14:00:50;5.33;;;3.30;;
74612;SDS011;63119;51.788;8.824;2024-03-02T14:03:15;6.00;;;2.57;;
74612;SDS011;63119;51.788;8.824;2024-03-02T14:05:41;5.00;;;2.70;;
74612;SDS011;63119;51.788;8.824;2024-03-02T14:08:06;4.37;;;2.60;;
74612;SDS011;63119;51.788;8.824;2024-03-02T14:10:31;4.70;;;2.97;;
74612;SDS011;63119;51.788;8.824;2024-03-02T14:12:57;4.85;;;2.95;;
74612;SDS011;63119;51.788;8.824;2024-03-02T14:15:22;4.47;;;2.63;;
74612;SDS011;63119;51.788;8.824;2024-03-02T14:17:49;4.43;;;2.42;;
74612;SDS011;63119;51.788;8.824;2024-03-02T14:20:14;4.65;;;2.45;;
74612;SDS011;63119;51.788;8.824;2024-03-02T14:22:40;5.10;;;2.60;;
74612;SDS011;63119;51.788;8.824;2024-03-02T14:25:05;5.43;;;2.83;;
74612;SDS011;63119;51.788;8.824;2024-03-02T14:27:31;5.72;;;2.83;;
74612;SDS011;63119;51.788;8.824;2024-03-02T14:29:56;4.53;;;2.42;;
74612;SDS011;63119;51.788;8.824;2024-03-02T14:32:21;5.53;;;2.53;;
74612;SDS011;63119;51.788;8.824;2024-03-02T14:34:47;4.40;;;2.57;;
74612;SDS011;63119;51.788;8.824;2024-03-02T14:37:13;5.27;;;3.00;;
74612;SDS011;63119;51.788;8.824;2024-03-02T14:39:39;4.80;;;2.80;;